createdAt,value
2018-11-01T00:00:06.380Z,4.78
2018-11-01T00:02:48.967Z,4.05
2018-11-01T00:05:30.298Z,4.10
2018-11-01T00:08:11.208Z,3.33
2018-11-01T00:10:52.741Z,3.27
2018-11-01T00:24:10.150Z,2.33
2018-11-01T00:26:50.803Z,2.58
2018-11-01T00:29:32.527Z,1.95
2018-11-01T00:32:14.508Z,2.37
2018-11-01T00:34:55.725Z,1.80
2018-11-01T00:37:37.495Z,2.60
2018-11-01T00:40:19.176Z,2.47
2018-11-01T00:43:00.533Z,2.22
2018-11-01T00:45:42.062Z,2.30
2018-11-01T00:48:23.856Z,3.25
2018-11-01T00:51:05.443Z,2.45
2018-11-01T00:53:47.116Z,2.65
2018-11-01T00:56:28.714Z,2.05
2018-11-01T00:59:10.322Z,1.90
2018-11-01T01:01:52.085Z,1.80
2018-11-01T01:04:33.612Z,3.37
2018-11-01T01:07:15.263Z,2.40
2018-11-01T01:09:57.058Z,1.85
2018-11-01T01:12:38.567Z,2.20
2018-11-01T01:15:19.954Z,2.00
2018-11-01T01:18:02.437Z,1.80
2018-11-01T01:20:44.796Z,2.22
2018-11-01T01:23:26.054Z,2.12
2018-11-01T01:26:07.638Z,1.80
2018-11-01T01:28:49.015Z,2.10
2018-11-01T01:31:30.687Z,2.10
2018-11-01T01:34:11.986Z,1.95
2018-11-01T01:36:53.987Z,2.20
2018-11-01T01:39:35.560Z,2.33
2018-11-01T01:42:17.042Z,2.60
2018-11-01T01:44:58.733Z,3.62
2018-11-01T01:47:40.343Z,3.27
2018-11-01T01:50:22.786Z,3.35
2018-11-01T01:53:03.716Z,3.20
2018-11-01T01:55:45.212Z,3.30
2018-11-01T01:58:26.596Z,3.27
2018-11-01T02:01:08.267Z,2.87
2018-11-01T02:03:50.890Z,2.87
2018-11-01T02:06:31.957Z,2.80
2018-11-01T02:09:13.868Z,2.70
2018-11-01T02:11:54.771Z,2.50
2018-11-01T02:14:36.448Z,2.70
2018-11-01T02:17:18.841Z,2.77
2018-11-01T02:20:00.623Z,2.50
2018-11-01T02:22:43.053Z,2.27
2018-11-01T02:25:25.173Z,2.10
2018-11-01T02:28:11.936Z,2.12
2018-11-01T02:30:54.881Z,2.85
2018-11-01T02:33:36.546Z,2.50
2018-11-01T02:36:18.480Z,2.45
2018-11-01T02:39:00.386Z,2.50
2018-11-01T02:41:43.785Z,2.98
2018-11-01T02:44:25.361Z,2.00
2018-11-01T02:47:06.333Z,2.70
2018-11-01T02:49:48.658Z,2.17
2018-11-01T02:52:30.127Z,2.20
2018-11-01T02:55:11.542Z,2.25
2018-11-01T02:57:53.170Z,2.30
2018-11-01T03:00:34.485Z,2.20
2018-11-01T03:03:17.401Z,2.00
2018-11-01T03:05:59.065Z,2.15
2018-11-01T03:08:39.995Z,2.10
2018-11-01T03:11:21.688Z,2.20
2018-11-01T03:14:02.836Z,2.20
2018-11-01T03:16:43.917Z,2.20
2018-11-01T03:19:25.061Z,1.95
2018-11-01T03:22:06.995Z,2.62
2018-11-01T03:24:48.413Z,2.70
2018-11-01T03:27:30.269Z,2.40
2018-11-01T03:30:11.902Z,2.00
2018-11-01T03:32:53.474Z,1.80
2018-11-01T03:35:35.051Z,2.10
2018-11-01T03:38:17.514Z,2.10
2018-11-01T03:40:58.827Z,1.90
2018-11-01T03:43:41.132Z,1.80
2018-11-01T03:46:22.000Z,2.00
2018-11-01T03:49:05.042Z,2.00
2018-11-01T03:51:46.359Z,1.98
2018-11-01T03:54:28.365Z,1.82
2018-11-01T03:57:10.215Z,1.92
2018-11-01T03:59:51.392Z,1.90
2018-11-01T04:02:32.789Z,1.90
2018-11-01T04:05:14.492Z,2.05
2018-11-01T04:07:56.767Z,2.15
2018-11-01T04:10:37.861Z,1.80
2018-11-01T04:13:18.767Z,2.27
2018-11-01T04:16:00.605Z,2.00
2018-11-01T04:18:42.811Z,1.80
2018-11-01T04:21:24.610Z,2.10
2018-11-01T04:24:07.289Z,1.80
2018-11-01T04:26:48.707Z,1.60
2018-11-01T04:29:30.211Z,1.72
2018-11-01T04:32:11.618Z,2.00
2018-11-01T04:34:52.465Z,2.22
2018-11-01T04:37:34.274Z,1.70
2018-11-01T04:40:15.927Z,2.02
2018-11-01T04:42:58.593Z,1.85
2018-11-01T04:45:40.742Z,2.27
2018-11-01T04:48:22.046Z,1.52
2018-11-01T04:51:03.720Z,2.02
2018-11-01T04:53:45.436Z,2.02
2018-11-01T04:56:26.791Z,1.55
2018-11-01T04:59:09.142Z,1.72
2018-11-01T05:01:50.828Z,1.60
2018-11-01T05:04:32.480Z,1.80
2018-11-01T05:07:14.012Z,1.70
2018-11-01T05:09:55.764Z,1.50
2018-11-01T05:12:38.528Z,1.62
2018-11-01T05:15:20.402Z,1.65
2018-11-01T05:18:02.675Z,1.65
2018-11-01T05:20:44.674Z,1.90
2018-11-01T05:23:26.187Z,1.80
2018-11-01T05:26:07.908Z,1.50
2018-11-01T05:28:49.443Z,1.80
2018-11-01T05:31:31.465Z,1.60
2018-11-01T05:34:12.880Z,1.90
2018-11-01T05:36:53.798Z,1.92
2018-11-01T05:39:35.424Z,1.42
2018-11-01T05:42:17.589Z,1.80
2018-11-01T05:44:59.552Z,1.70
2018-11-01T05:47:40.685Z,1.60
2018-11-01T05:50:22.253Z,1.85
2018-11-01T05:53:04.046Z,2.60
2018-11-01T05:55:45.432Z,1.55
2018-11-01T05:58:26.937Z,2.00
2018-11-01T06:01:12.093Z,1.85
2018-11-01T06:03:53.268Z,1.90
2018-11-01T06:06:34.889Z,1.75
2018-11-01T06:09:22.414Z,1.75
2018-11-01T06:12:03.831Z,2.83
2018-11-01T06:14:46.491Z,2.10
2018-11-01T06:17:27.459Z,1.82
2018-11-01T06:20:09.251Z,2.15
2018-11-01T06:22:50.575Z,1.80
2018-11-01T06:25:32.635Z,2.20
2018-11-01T06:28:13.916Z,3.27
2018-11-01T06:30:55.505Z,2.87
2018-11-01T06:33:37.846Z,3.50
2018-11-01T06:36:19.225Z,2.50
2018-11-01T06:39:00.405Z,2.65
2018-11-01T06:41:42.376Z,2.20
2018-11-01T06:44:24.090Z,2.30
2018-11-01T06:47:05.446Z,2.33
2018-11-01T06:49:47.654Z,2.40
2018-11-01T06:52:29.291Z,2.62
2018-11-01T06:55:11.039Z,3.15
2018-11-01T06:57:53.402Z,3.20
2018-11-01T07:00:34.999Z,3.10
2018-11-01T07:03:16.330Z,2.50
2018-11-01T07:05:58.129Z,2.80
2018-11-01T07:08:39.698Z,3.20
2018-11-01T07:11:21.963Z,3.30
2018-11-01T07:14:03.356Z,2.83
2018-11-01T07:16:44.674Z,2.90
2018-11-01T07:19:25.971Z,2.67
2018-11-01T07:22:07.574Z,2.58
2018-11-01T07:24:49.231Z,2.42
2018-11-01T07:27:30.916Z,2.35
2018-11-01T07:30:13.919Z,2.25
2018-11-01T07:32:55.273Z,2.22
2018-11-01T07:35:37.171Z,2.20
2018-11-01T07:38:18.334Z,2.30
2018-11-01T07:41:00.056Z,2.42
2018-11-01T07:43:41.778Z,1.90
2018-11-01T07:46:24.365Z,1.80
2018-11-01T07:49:05.413Z,1.80
2018-11-01T07:51:47.419Z,2.00
2018-11-01T07:54:29.261Z,1.70
2018-11-01T07:57:11.070Z,1.87
2018-11-01T07:59:52.952Z,1.83
2018-11-01T08:02:34.034Z,1.80
2018-11-01T08:05:15.233Z,1.90
2018-11-01T08:07:56.706Z,1.90
2018-11-01T08:10:38.587Z,2.20
2018-11-01T08:13:20.091Z,2.00
2018-11-01T08:16:01.565Z,1.50
2018-11-01T08:18:43.872Z,1.80
2018-11-01T08:21:24.864Z,1.67
2018-11-01T08:24:06.430Z,2.10
2018-11-01T08:26:47.967Z,1.97
2018-11-01T08:29:29.872Z,1.53
2018-11-01T08:32:11.934Z,1.40
2018-11-01T08:34:53.025Z,1.40
2018-11-01T08:37:34.987Z,1.63
2018-11-01T08:40:15.900Z,1.20
2018-11-01T08:42:56.761Z,1.30
2018-11-01T08:45:38.704Z,1.00
2018-11-01T08:48:20.440Z,1.00
2018-11-01T08:51:01.704Z,1.27
2018-11-01T08:53:43.291Z,1.13
2018-11-01T08:56:24.981Z,1.30
2018-11-01T08:59:06.710Z,1.10
2018-11-01T09:01:48.264Z,1.50
2018-11-01T09:04:29.762Z,1.40
2018-11-01T09:07:11.649Z,1.20
2018-11-01T09:09:53.466Z,1.40
2018-11-01T09:12:35.565Z,1.30
2018-11-01T09:15:17.572Z,1.83
2018-11-01T09:17:58.448Z,2.97
2018-11-01T09:20:39.489Z,4.30
2018-11-01T09:23:21.286Z,4.60
2018-11-01T09:26:03.399Z,3.60
2018-11-01T09:28:44.412Z,4.33
2018-11-01T09:31:25.635Z,3.73
2018-11-01T09:34:07.143Z,2.80
2018-11-01T09:36:48.684Z,2.60
2018-11-01T09:39:30.210Z,2.00
2018-11-01T09:42:10.787Z,2.43
2018-11-01T09:44:52.200Z,2.23
2018-11-01T09:47:34.057Z,2.50
2018-11-01T09:50:15.409Z,2.20
2018-11-01T09:52:57.082Z,1.47
2018-11-01T09:55:37.837Z,1.27
2018-11-01T09:58:19.521Z,1.00
2018-11-01T10:01:00.939Z,0.90
2018-11-01T10:03:42.431Z,1.00
2018-11-01T10:06:24.092Z,0.90
2018-11-01T10:09:05.976Z,1.07
2018-11-01T10:11:48.121Z,1.00
2018-11-01T10:14:30.005Z,1.30
2018-11-01T10:17:11.543Z,1.00
2018-11-01T10:19:53.006Z,1.20
2018-11-01T10:22:34.694Z,1.00
2018-11-01T10:25:17.307Z,1.20
2018-11-01T10:27:58.305Z,2.47
2018-11-01T10:30:39.281Z,2.57
2018-11-01T10:33:20.875Z,2.40
2018-11-01T10:36:02.667Z,4.20
2018-11-01T10:38:44.107Z,3.67
2018-11-01T10:41:25.701Z,2.53
2018-11-01T10:44:07.330Z,2.93
2018-11-01T10:46:49.235Z,2.00
2018-11-01T10:49:30.720Z,3.20
2018-11-01T10:52:12.480Z,2.80
2018-11-01T10:54:54.122Z,2.40
2018-11-01T10:57:36.349Z,2.03
2018-11-01T11:00:23.242Z,2.10
2018-11-01T11:03:04.105Z,2.47
2018-11-01T11:05:45.768Z,2.13
2018-11-01T11:08:28.133Z,1.80
2018-11-01T11:11:09.255Z,1.87
2018-11-01T11:13:51.531Z,1.60
2018-11-01T11:16:33.541Z,1.90
2018-11-01T11:19:15.335Z,1.10
2018-11-01T11:21:57.224Z,1.50
2018-11-01T11:24:38.425Z,1.47
2018-11-01T11:27:20.019Z,1.70
2018-11-01T11:30:02.186Z,1.57
2018-11-01T11:32:43.811Z,1.37
2018-11-01T11:35:25.437Z,1.17
2018-11-01T11:38:07.394Z,1.30
2018-11-01T11:40:50.293Z,1.20
2018-11-01T11:43:31.904Z,1.13
2018-11-01T11:46:13.584Z,1.20
2018-11-01T11:48:54.957Z,1.30
2018-11-01T11:51:37.237Z,1.27
2018-11-01T11:54:19.470Z,1.60
2018-11-01T11:57:01.349Z,1.23
2018-11-01T11:59:42.881Z,1.20
2018-11-01T12:02:24.762Z,1.40
2018-11-01T12:05:06.260Z,1.10
2018-11-01T12:07:47.614Z,1.10
2018-11-01T12:10:29.326Z,1.10
2018-11-01T12:13:10.999Z,1.23
2018-11-01T12:15:53.507Z,1.30
2018-11-01T12:18:36.383Z,1.30
2018-11-01T12:21:18.287Z,1.10
2018-11-01T12:24:00.208Z,1.33
2018-11-01T12:26:41.295Z,1.20
2018-11-01T12:29:22.912Z,1.03
2018-11-01T12:32:04.371Z,1.10
2018-11-01T12:34:46.007Z,1.50
2018-11-01T12:37:27.684Z,1.50
2018-11-01T12:40:09.981Z,1.47
2018-11-01T12:42:51.649Z,1.13
2018-11-01T12:45:33.365Z,1.50
2018-11-01T12:48:14.622Z,1.30
2018-11-01T12:50:56.228Z,1.07
2018-11-01T12:53:37.835Z,1.30
2018-11-01T12:56:19.640Z,1.30
2018-11-01T12:59:01.621Z,1.17
2018-11-01T13:01:42.875Z,1.33
2018-11-01T13:04:24.362Z,1.60
2018-11-01T13:07:05.980Z,1.40
2018-11-01T13:09:48.014Z,1.40
2018-11-01T13:12:29.944Z,3.43
2018-11-01T13:15:12.597Z,2.27
2018-11-01T13:17:54.189Z,2.27
2018-11-01T13:20:35.106Z,1.83
2018-11-01T13:23:16.915Z,1.77
2018-11-01T13:25:58.608Z,2.10
2018-11-01T13:28:40.398Z,5.40
2018-11-01T13:31:22.842Z,11.40
2018-11-01T13:34:04.191Z,5.90
2018-11-01T13:36:45.777Z,2.60
2018-11-01T13:39:29.945Z,33.17
2018-11-01T13:42:11.248Z,14.60
2018-11-01T13:44:53.654Z,20.70
2018-11-01T13:47:34.878Z,4.13
2018-11-01T13:50:16.511Z,2.00
2018-11-01T13:52:58.999Z,1.40
2018-11-01T13:55:40.504Z,2.50
2018-11-01T13:58:22.435Z,1.40
2018-11-01T14:01:04.210Z,2.37
2018-11-01T14:03:47.341Z,2.10
2018-11-01T14:06:32.439Z,6.23
2018-11-01T14:09:15.217Z,4.00
2018-11-01T14:11:57.564Z,1.30
2018-11-01T14:14:39.454Z,1.30
2018-11-01T14:17:21.252Z,9.27
2018-11-01T14:20:03.181Z,6.37
2018-11-01T14:22:44.194Z,8.70
2018-11-01T14:25:32.364Z,2.37
2018-11-01T14:28:14.586Z,2.00
2018-11-01T14:30:56.809Z,4.10
2018-11-01T14:33:38.865Z,3.90
2018-11-01T14:36:20.746Z,7.00
2018-11-01T14:39:06.252Z,6.00
2018-11-01T14:41:47.869Z,6.20
2018-11-01T14:44:29.792Z,7.50
2018-11-01T14:47:12.007Z,3.20
2018-11-01T14:49:54.648Z,1.60
2018-11-01T14:52:36.938Z,1.73
2018-11-01T14:55:19.114Z,2.70
2018-11-01T14:58:01.968Z,4.43
2018-11-01T15:00:42.110Z,3.07
2018-11-01T15:03:24.246Z,4.13
2018-11-01T15:06:07.740Z,3.33
2018-11-01T15:08:50.659Z,2.97
2018-11-01T15:11:31.724Z,4.17
2018-11-01T15:14:14.719Z,6.60
2018-11-01T15:16:55.855Z,3.87
2018-11-01T15:19:38.238Z,10.30
2018-11-01T15:22:20.961Z,14.60
2018-11-01T15:25:02.639Z,6.63
2018-11-01T15:27:44.019Z,4.33
2018-11-01T15:30:25.377Z,12.73
2018-11-01T15:33:06.864Z,9.20
2018-11-01T15:35:48.397Z,10.30
2018-11-01T15:38:30.040Z,22.27
2018-11-01T15:41:11.953Z,5.50
2018-11-01T15:43:53.075Z,8.50
2018-11-01T15:46:35.619Z,5.37
2018-11-01T15:49:18.976Z,6.27
2018-11-01T15:52:00.131Z,7.07
2018-11-01T15:54:41.323Z,5.03
2018-11-01T15:57:23.006Z,5.60
2018-11-01T16:00:04.594Z,2.90
2018-11-01T16:02:46.247Z,6.67
2018-11-01T16:05:27.872Z,5.27
2018-11-01T16:08:09.278Z,10.00
2018-11-01T16:10:51.278Z,5.10
2018-11-01T16:13:33.828Z,2.93
2018-11-01T16:16:15.864Z,2.40
2018-11-01T16:18:57.766Z,1.82
2018-11-01T16:21:39.287Z,2.20
2018-11-01T16:24:22.081Z,2.00
2018-11-01T16:27:04.543Z,2.20
2018-11-01T16:29:45.448Z,1.95
2018-11-01T16:32:27.063Z,2.00
2018-11-01T16:35:09.070Z,1.90
2018-11-01T16:37:51.929Z,2.27
2018-11-01T16:40:32.953Z,3.30
2018-11-01T16:43:15.474Z,3.70
2018-11-01T16:45:57.541Z,4.80
2018-11-01T16:48:38.527Z,4.40
2018-11-01T16:51:21.146Z,4.85
2018-11-01T16:54:02.976Z,3.75
2018-11-01T16:56:44.715Z,5.10
2018-11-01T16:59:25.916Z,2.35
2018-11-01T17:02:07.484Z,2.80
2018-11-01T17:04:50.335Z,2.25
2018-11-01T17:07:32.535Z,2.50
2018-11-01T17:10:14.772Z,2.40
2018-11-01T17:12:56.758Z,5.95
2018-11-01T17:15:39.412Z,2.67
2018-11-01T17:18:20.834Z,2.70
2018-11-01T17:21:02.495Z,4.60
2018-11-01T17:23:44.699Z,3.15
2018-11-01T17:26:26.640Z,3.30
2018-11-01T17:29:08.675Z,4.80
2018-11-01T17:31:50.898Z,4.08
2018-11-01T17:34:32.187Z,4.00
2018-11-01T17:37:13.807Z,2.47
2018-11-01T17:39:55.465Z,2.37
2018-11-01T17:42:37.671Z,2.15
2018-11-01T17:45:19.276Z,1.85
2018-11-01T17:48:00.789Z,1.87
2018-11-01T17:50:44.181Z,1.80
2018-11-01T17:53:26.894Z,2.10
2018-11-01T17:56:08.684Z,1.77
2018-11-01T17:58:50.370Z,1.90
2018-11-01T18:01:32.435Z,1.80
2018-11-01T18:04:13.716Z,1.80
2018-11-01T18:06:55.857Z,1.87
2018-11-01T18:09:38.159Z,2.30
2018-11-01T18:12:19.581Z,1.95
2018-11-01T18:15:02.288Z,3.10
2018-11-01T18:17:44.820Z,2.77
2018-11-01T18:20:26.036Z,2.75
2018-11-01T18:23:07.817Z,3.65
2018-11-01T18:25:50.841Z,3.10
2018-11-01T18:28:33.206Z,2.65
2018-11-01T18:31:14.766Z,2.17
2018-11-01T18:33:57.171Z,2.20
2018-11-01T18:36:39.582Z,2.60
2018-11-01T18:39:21.675Z,2.50
2018-11-01T18:42:03.394Z,1.87
2018-11-01T18:44:45.335Z,1.90
2018-11-01T18:47:26.343Z,7.12
2018-11-01T18:50:07.522Z,6.47
2018-11-01T18:52:49.001Z,4.55
2018-11-01T18:55:30.697Z,3.15
2018-11-01T18:58:12.321Z,2.10
2018-11-01T19:00:55.140Z,2.25
2018-11-01T19:03:36.726Z,2.60
2018-11-01T19:06:18.589Z,2.30
2018-11-01T19:09:01.771Z,2.50
2018-11-01T19:11:44.266Z,1.80
2018-11-01T19:14:26.627Z,2.17
2018-11-01T19:17:09.601Z,3.20
2018-11-01T19:19:51.617Z,3.85
2018-11-01T19:22:32.645Z,4.85
2018-11-01T19:25:14.441Z,4.58
2018-11-01T19:27:57.023Z,6.10
2018-11-01T19:30:39.457Z,6.53
2018-11-01T19:33:21.318Z,10.03
2018-11-01T19:36:03.711Z,5.20
2018-11-01T19:38:44.857Z,5.90
2018-11-01T19:41:27.330Z,6.17
2018-11-01T19:44:09.690Z,6.10
2018-11-01T19:46:50.943Z,5.62
2018-11-01T19:49:32.207Z,4.78
2018-11-01T19:52:14.688Z,3.83
2018-11-01T19:54:56.098Z,4.00
2018-11-01T19:57:37.619Z,6.30
2018-11-01T20:00:20.122Z,9.30
2018-11-01T20:03:01.704Z,25.20
2018-11-01T20:05:42.578Z,20.60
2018-11-01T20:08:24.744Z,8.88
2018-11-01T20:11:06.682Z,7.90
2018-11-01T20:13:49.062Z,7.40
2018-11-01T20:16:30.446Z,5.40
2018-11-01T20:19:11.622Z,4.60
2018-11-01T20:21:53.865Z,5.37
2018-11-01T20:24:35.369Z,3.60
2018-11-01T20:27:16.886Z,3.50
2018-11-01T20:29:58.825Z,3.50
2018-11-01T20:32:40.520Z,3.00
2018-11-01T20:35:22.213Z,3.60
2018-11-01T20:38:04.034Z,3.62
2018-11-01T20:40:45.458Z,2.52
2018-11-01T20:43:28.252Z,3.55
2018-11-01T20:46:10.103Z,3.00
2018-11-01T20:48:51.762Z,2.95
2018-11-01T20:51:34.297Z,2.50
2018-11-01T20:54:15.302Z,2.75
2018-11-01T20:56:56.573Z,2.05
2018-11-01T20:59:38.116Z,1.85
2018-11-01T21:02:19.300Z,2.37
2018-11-01T21:05:00.805Z,2.80
2018-11-01T21:07:41.981Z,2.33
2018-11-01T21:10:24.237Z,2.50
2018-11-01T21:13:05.959Z,2.80
2018-11-01T21:15:47.889Z,2.75
2018-11-01T21:18:29.622Z,3.98
2018-11-01T21:21:10.961Z,3.40
2018-11-01T21:23:52.926Z,3.10
2018-11-01T21:26:34.640Z,2.60
2018-11-01T21:29:16.100Z,2.65
2018-11-01T21:31:57.965Z,2.90
2018-11-01T21:34:39.767Z,3.08
2018-11-01T21:37:21.519Z,2.95
2018-11-01T21:40:02.996Z,2.80
2018-11-01T21:42:44.387Z,2.77
2018-11-01T21:45:25.659Z,3.00
2018-11-01T21:48:07.755Z,2.62
2018-11-01T21:50:49.268Z,2.42
2018-11-01T21:53:30.970Z,2.77
2018-11-01T21:56:12.873Z,2.58
2018-11-01T21:58:54.838Z,2.92
2018-11-01T22:01:36.672Z,2.80
2018-11-01T22:04:18.029Z,2.58
2018-11-01T22:06:59.536Z,2.65
2018-11-01T22:09:41.140Z,2.62
2018-11-01T22:12:24.884Z,2.70
2018-11-01T22:15:06.819Z,2.75
2018-11-01T22:17:48.929Z,2.35
2018-11-01T22:20:31.069Z,2.20
2018-11-01T22:23:14.435Z,2.62
2018-11-01T22:25:56.475Z,2.50
2018-11-01T22:28:38.363Z,2.30
2018-11-01T22:31:23.227Z,2.08
2018-11-01T22:34:05.678Z,2.25
2018-11-01T22:36:47.556Z,2.52
2018-11-01T22:39:30.066Z,2.10
2018-11-01T22:42:11.419Z,2.20
2018-11-01T22:44:55.783Z,2.27
2018-11-01T22:47:38.126Z,1.90
2018-11-01T22:50:20.224Z,1.87
2018-11-01T22:53:02.811Z,2.00
2018-11-01T22:55:45.511Z,1.85
2018-11-01T22:58:26.910Z,1.85
2018-11-01T23:01:09.584Z,2.27
2018-11-01T23:03:52.236Z,1.90
2018-11-01T23:06:35.168Z,2.20
2018-11-01T23:09:17.006Z,2.00
2018-11-01T23:11:59.673Z,2.20
2018-11-01T23:14:41.348Z,2.12
2018-11-01T23:17:23.175Z,1.95
2018-11-01T23:20:04.975Z,1.80
2018-11-01T23:22:46.592Z,1.92
2018-11-01T23:25:28.309Z,1.95
2018-11-01T23:28:10.111Z,1.82
2018-11-01T23:30:52.428Z,1.80
2018-11-01T23:33:34.362Z,1.80
2018-11-01T23:36:15.456Z,1.80
2018-11-01T23:39:01.649Z,1.70
2018-11-01T23:41:48.461Z,1.70
2018-11-01T23:44:35.169Z,1.80
2018-11-01T23:47:22.500Z,1.70
2018-11-01T23:50:08.564Z,1.57
2018-11-01T23:52:54.617Z,1.60
2018-11-01T23:55:35.961Z,1.77
2018-11-01T23:58:17.450Z,1.40
